createdAt,value
2017-12-27T00:02:17.882Z,3.30
2017-12-27T00:04:50.900Z,3.62
2017-12-27T00:07:23.865Z,2.50
2017-12-27T00:09:56.854Z,3.42
2017-12-27T00:12:29.799Z,4.82
2017-12-27T00:15:02.871Z,4.90
2017-12-27T00:17:35.806Z,4.05
2017-12-27T00:20:22.699Z,2.83
2017-12-27T00:22:55.895Z,3.65
2017-12-27T00:25:28.737Z,3.47
2017-12-27T00:28:01.811Z,2.85
2017-12-27T00:30:34.814Z,2.75
2017-12-27T00:33:02.042Z,2.95
2017-12-27T00:35:29.254Z,3.55
2017-12-27T00:37:56.473Z,3.62
2017-12-27T00:40:23.687Z,3.25
2017-12-27T00:42:50.925Z,4.45
2017-12-27T00:45:18.140Z,3.95
2017-12-27T00:47:45.364Z,6.03
2017-12-27T00:50:12.581Z,7.10
2017-12-27T00:52:39.805Z,8.10
2017-12-27T00:55:07.020Z,5.05
2017-12-27T00:57:34.262Z,7.70
2017-12-27T01:00:01.481Z,9.25
2017-12-27T01:02:28.710Z,6.32
2017-12-27T01:04:55.969Z,5.40
2017-12-27T01:07:23.188Z,5.95
2017-12-27T01:09:50.443Z,5.50
2017-12-27T01:12:17.652Z,8.73
2017-12-27T01:14:44.881Z,5.75
2017-12-27T01:17:12.096Z,8.27
2017-12-27T01:19:39.324Z,3.60
2017-12-27T01:22:06.552Z,3.42
2017-12-27T01:24:33.778Z,3.92
2017-12-27T01:27:00.993Z,4.65
2017-12-27T01:29:28.220Z,4.68
2017-12-27T01:31:55.459Z,3.92
2017-12-27T01:34:22.681Z,4.82
2017-12-27T01:36:49.896Z,5.80
2017-12-27T01:39:17.124Z,5.30
2017-12-27T01:41:44.348Z,3.70
2017-12-27T01:44:12.192Z,4.82
2017-12-27T01:46:40.322Z,3.47
2017-12-27T01:49:07.542Z,4.45
2017-12-27T01:51:34.764Z,2.70
2017-12-27T01:54:01.988Z,2.40
2017-12-27T01:56:29.203Z,2.72
2017-12-27T01:58:56.433Z,5.15
2017-12-27T02:01:23.644Z,2.95
2017-12-27T02:03:50.891Z,3.30
2017-12-27T02:06:18.095Z,2.87
2017-12-27T02:08:45.317Z,2.97
2017-12-27T02:11:12.547Z,3.67
2017-12-27T02:13:39.800Z,3.25
2017-12-27T02:16:07.030Z,3.53
2017-12-27T02:18:34.252Z,3.42
2017-12-27T02:21:01.476Z,2.95
2017-12-27T02:23:28.701Z,4.45
2017-12-27T02:25:55.921Z,4.45
2017-12-27T02:28:23.145Z,4.25
2017-12-27T02:30:50.373Z,6.10
2017-12-27T02:33:17.584Z,3.33
2017-12-27T02:35:44.809Z,5.37
2017-12-27T02:38:12.033Z,8.80
2017-12-27T02:40:39.264Z,4.65
2017-12-27T02:43:06.480Z,5.68
2017-12-27T02:45:33.701Z,5.60
2017-12-27T02:48:00.920Z,7.53
2017-12-27T02:50:28.136Z,5.85
2017-12-27T02:52:55.349Z,8.20
2017-12-27T02:55:22.625Z,6.62
2017-12-27T02:57:49.845Z,8.52
2017-12-27T03:00:17.058Z,8.32
2017-12-27T03:02:44.272Z,8.32
2017-12-27T03:05:11.493Z,9.65
2017-12-27T03:07:38.719Z,8.77
2017-12-27T03:10:05.936Z,7.70
2017-12-27T03:12:33.149Z,6.07
2017-12-27T03:15:00.377Z,7.40
2017-12-27T03:17:27.584Z,7.30
2017-12-27T03:19:54.812Z,6.75
2017-12-27T03:22:22.015Z,6.53
2017-12-27T03:24:49.232Z,5.82
2017-12-27T03:27:16.444Z,4.65
2017-12-27T03:29:43.661Z,7.93
2017-12-27T03:32:10.878Z,5.40
2017-12-27T03:34:38.108Z,6.80
2017-12-27T03:37:05.334Z,8.82
2017-12-27T03:39:32.549Z,5.37
2017-12-27T03:41:59.781Z,5.78
2017-12-27T03:44:26.990Z,5.78
2017-12-27T03:46:54.207Z,7.30
2017-12-27T03:49:21.424Z,7.82
2017-12-27T03:51:48.644Z,7.35
2017-12-27T03:54:15.870Z,6.55
2017-12-27T03:56:43.090Z,6.78
2017-12-27T03:59:10.302Z,6.87
2017-12-27T04:01:37.522Z,5.37
2017-12-27T04:04:04.736Z,5.65
2017-12-27T04:06:31.956Z,5.97
2017-12-27T04:08:59.172Z,5.20
2017-12-27T04:11:26.397Z,4.75
2017-12-27T04:13:53.608Z,5.90
2017-12-27T04:16:20.840Z,7.07
2017-12-27T04:18:48.064Z,5.75
2017-12-27T04:21:15.302Z,6.37
2017-12-27T04:23:42.504Z,5.97
2017-12-27T04:26:09.719Z,7.15
2017-12-27T04:28:36.984Z,7.93
2017-12-27T04:31:04.156Z,7.68
2017-12-27T04:33:31.390Z,6.18
2017-12-27T04:35:58.604Z,4.78
2017-12-27T04:38:25.832Z,10.18
2017-12-27T04:40:53.040Z,5.80
2017-12-27T04:43:20.260Z,4.80
2017-12-27T04:45:47.476Z,5.32
2017-12-27T04:48:14.695Z,6.40
2017-12-27T04:50:41.913Z,5.55
2017-12-27T04:53:09.131Z,6.78
2017-12-27T04:55:36.355Z,4.15
2017-12-27T04:58:03.582Z,6.93
2017-12-27T05:00:30.792Z,4.25
2017-12-27T05:02:58.020Z,3.60
2017-12-27T05:05:25.237Z,4.43
2017-12-27T05:07:52.453Z,4.57
2017-12-27T05:10:19.674Z,4.85
2017-12-27T05:12:46.893Z,8.88
2017-12-27T05:15:14.099Z,6.35
2017-12-27T05:17:41.324Z,9.90
2017-12-27T05:20:08.540Z,5.37
2017-12-27T05:22:35.759Z,5.30
2017-12-27T05:25:02.971Z,7.25
2017-12-27T05:27:30.187Z,9.55
2017-12-27T05:29:57.412Z,8.60
2017-12-27T05:32:24.624Z,8.65
2017-12-27T05:34:51.846Z,5.10
2017-12-27T05:37:19.064Z,2.78
2017-12-27T05:39:46.297Z,2.87
2017-12-27T05:42:13.510Z,1.60
2017-12-27T05:44:40.737Z,2.90
2017-12-27T05:47:07.952Z,2.75
2017-12-27T05:49:35.168Z,1.90
2017-12-27T05:52:02.466Z,3.72
2017-12-27T05:54:29.687Z,2.05
2017-12-27T05:56:56.898Z,2.80
2017-12-27T05:59:24.116Z,1.65
2017-12-27T06:01:51.332Z,2.25
2017-12-27T06:04:18.554Z,2.15
2017-12-27T06:06:45.776Z,1.85
2017-12-27T06:09:13.000Z,3.75
2017-12-27T06:11:40.216Z,1.77
2017-12-27T06:14:07.437Z,1.70
2017-12-27T06:16:34.665Z,5.97
2017-12-27T06:19:01.890Z,4.32
2017-12-27T06:21:29.104Z,5.60
2017-12-27T06:23:56.336Z,2.90
2017-12-27T06:26:23.560Z,2.80
2017-12-27T06:28:50.776Z,5.05
2017-12-27T06:31:17.995Z,3.95
2017-12-27T06:33:45.272Z,3.65
2017-12-27T06:36:12.492Z,5.00
2017-12-27T06:38:39.713Z,5.20
2017-12-27T06:41:06.941Z,3.67
2017-12-27T06:43:34.157Z,2.75
2017-12-27T06:46:01.388Z,3.20
2017-12-27T06:48:28.592Z,3.55
2017-12-27T06:50:55.821Z,1.50
2017-12-27T06:53:23.041Z,2.45
2017-12-27T06:55:50.259Z,1.62
2017-12-27T06:58:17.478Z,2.12
2017-12-27T07:00:44.700Z,1.73
2017-12-27T07:03:11.912Z,2.10
2017-12-27T07:05:39.139Z,1.90
2017-12-27T07:08:06.356Z,2.40
2017-12-27T07:10:33.572Z,2.35
2017-12-27T07:13:00.788Z,2.45
2017-12-27T07:15:28.021Z,3.15
2017-12-27T07:17:55.229Z,3.20
2017-12-27T07:20:22.449Z,4.93
2017-12-27T07:22:49.662Z,6.20
2017-12-27T07:25:16.884Z,8.73
2017-12-27T07:27:44.100Z,6.53
2017-12-27T07:30:11.323Z,5.03
2017-12-27T07:32:38.539Z,4.30
2017-12-27T07:35:05.760Z,4.05
2017-12-27T07:37:32.990Z,2.83
2017-12-27T07:40:00.201Z,4.45
2017-12-27T07:42:27.423Z,2.97
2017-12-27T07:44:54.636Z,2.50
2017-12-27T07:47:21.907Z,3.03
2017-12-27T07:49:49.129Z,2.72
2017-12-27T07:52:16.361Z,2.17
2017-12-27T07:54:43.598Z,2.78
2017-12-27T07:57:10.835Z,3.20
2017-12-27T07:59:38.051Z,2.20
2017-12-27T08:02:05.280Z,2.30
2017-12-27T08:04:32.497Z,2.33
2017-12-27T08:06:59.717Z,3.30
2017-12-27T08:09:26.928Z,2.70
2017-12-27T08:11:54.149Z,2.87
2017-12-27T08:14:21.373Z,5.78
2017-12-27T08:16:48.598Z,2.92
2017-12-27T08:19:15.812Z,2.90
2017-12-27T08:21:43.037Z,4.10
2017-12-27T08:24:10.270Z,4.93
2017-12-27T08:26:37.488Z,2.50
2017-12-27T08:29:04.700Z,4.35
2017-12-27T08:31:31.938Z,5.30
2017-12-27T08:33:59.144Z,6.40
2017-12-27T08:36:26.373Z,6.80
2017-12-27T08:38:53.596Z,10.95
2017-12-27T08:41:20.821Z,8.98
2017-12-27T08:43:48.041Z,6.50
2017-12-27T08:46:15.262Z,7.00
2017-12-27T08:48:42.483Z,7.05
2017-12-27T08:51:09.714Z,6.12
2017-12-27T08:53:36.944Z,3.87
2017-12-27T08:56:04.192Z,2.85
2017-12-27T08:58:31.421Z,2.50
2017-12-27T09:00:58.634Z,2.45
2017-12-27T09:03:25.861Z,2.20
2017-12-27T09:05:53.081Z,2.20
2017-12-27T09:08:20.311Z,2.00
2017-12-27T09:10:47.525Z,1.90
2017-12-27T09:13:14.753Z,3.90
2017-12-27T09:15:41.974Z,2.67
2017-12-27T09:18:09.200Z,5.22
2017-12-27T09:20:36.412Z,3.45
2017-12-27T09:23:03.636Z,3.72
2017-12-27T09:25:30.843Z,3.05
2017-12-27T09:27:58.070Z,2.05
2017-12-27T09:30:25.284Z,2.80
2017-12-27T09:32:53.493Z,4.25
2017-12-27T09:35:20.708Z,2.37
2017-12-27T09:37:47.943Z,5.55
2017-12-27T09:40:15.156Z,5.35
2017-12-27T09:42:42.378Z,2.17
2017-12-27T09:45:09.593Z,2.15
2017-12-27T09:47:36.841Z,2.15
2017-12-27T09:50:04.133Z,3.25
2017-12-27T09:52:31.353Z,2.30
2017-12-27T09:54:58.577Z,2.37
2017-12-27T09:57:25.809Z,1.95
2017-12-27T09:59:53.028Z,2.05
2017-12-27T10:02:20.245Z,2.00
2017-12-27T10:04:47.474Z,2.20
2017-12-27T10:07:14.684Z,2.47
2017-12-27T10:09:41.933Z,4.47
2017-12-27T10:12:09.124Z,4.80
2017-12-27T10:14:37.242Z,3.83
2017-12-27T10:17:04.452Z,3.85
2017-12-27T10:19:31.686Z,2.90
2017-12-27T10:21:58.897Z,3.45
2017-12-27T10:24:26.130Z,3.75
2017-12-27T10:26:53.342Z,6.57
2017-12-27T10:29:20.556Z,7.62
2017-12-27T10:31:47.771Z,6.93
2017-12-27T10:34:15.003Z,6.70
2017-12-27T10:36:42.215Z,4.45
2017-12-27T10:39:09.432Z,5.28
2017-12-27T10:41:36.653Z,4.72
2017-12-27T10:44:03.872Z,5.97
2017-12-27T10:46:31.093Z,4.30
2017-12-27T10:48:58.326Z,4.25
2017-12-27T10:51:25.544Z,5.20
2017-12-27T10:53:52.772Z,4.65
2017-12-27T10:56:19.987Z,8.55
2017-12-27T10:58:47.218Z,5.03
2017-12-27T11:01:14.444Z,5.80
2017-12-27T11:03:41.666Z,5.40
2017-12-27T11:06:08.892Z,4.90
2017-12-27T11:08:36.111Z,4.10
2017-12-27T11:11:03.332Z,5.12
2017-12-27T11:13:30.573Z,5.93
2017-12-27T11:15:57.800Z,5.85
2017-12-27T11:18:25.045Z,6.30
2017-12-27T11:20:52.272Z,4.57
2017-12-27T11:23:19.491Z,6.87
2017-12-27T11:25:46.717Z,5.53
2017-12-27T11:28:13.974Z,4.43
2017-12-27T11:30:41.200Z,6.22
2017-12-27T11:33:08.428Z,5.10
2017-12-27T11:35:36.238Z,6.45
2017-12-27T11:38:03.524Z,5.68
2017-12-27T11:40:30.772Z,5.95
2017-12-27T11:42:58.002Z,7.68
2017-12-27T11:45:25.301Z,8.15
2017-12-27T11:47:52.530Z,15.18
2017-12-27T11:50:19.758Z,8.40
2017-12-27T11:52:46.973Z,3.12
2017-12-27T11:55:15.118Z,2.60
2017-12-27T11:57:42.360Z,3.03
2017-12-27T12:00:09.581Z,2.22
2017-12-27T12:02:36.807Z,3.47
2017-12-27T12:05:04.036Z,5.30
2017-12-27T12:07:31.255Z,2.80
2017-12-27T12:09:58.473Z,5.80
2017-12-27T12:12:25.694Z,4.53
2017-12-27T12:14:52.948Z,3.08
2017-12-27T12:17:20.184Z,2.97
2017-12-27T12:19:47.404Z,3.40
2017-12-27T12:22:14.630Z,3.35
2017-12-27T12:24:41.856Z,3.78
2017-12-27T12:27:09.101Z,3.70
2017-12-27T12:29:36.323Z,3.12
2017-12-27T12:32:03.560Z,4.97
2017-12-27T12:34:30.789Z,2.95
2017-12-27T12:36:58.013Z,3.62
2017-12-27T12:39:25.256Z,3.30
2017-12-27T12:41:53.281Z,5.03
2017-12-27T12:44:20.501Z,3.10
2017-12-27T12:46:48.088Z,4.65
2017-12-27T12:49:15.300Z,4.78
2017-12-27T12:51:42.533Z,4.43
2017-12-27T12:54:09.770Z,6.93
2017-12-27T12:56:37.000Z,4.50
2017-12-27T12:59:05.105Z,7.85
2017-12-27T13:01:32.340Z,13.57
2017-12-27T13:03:59.553Z,9.20
2017-12-27T13:06:27.041Z,4.90
2017-12-27T13:08:54.262Z,7.37
2017-12-27T13:11:21.504Z,3.70
2017-12-27T13:13:48.726Z,7.43
2017-12-27T13:16:15.972Z,3.08
2017-12-27T13:18:43.192Z,3.30
2017-12-27T13:21:10.414Z,4.75
2017-12-27T13:23:37.641Z,6.40
2017-12-27T13:26:04.854Z,3.25
2017-12-27T13:28:32.094Z,3.45
2017-12-27T13:30:59.308Z,3.70
2017-12-27T13:33:26.537Z,4.18
2017-12-27T13:35:53.756Z,4.65
2017-12-27T13:38:20.978Z,5.57
2017-12-27T13:40:48.205Z,3.85
2017-12-27T13:43:15.438Z,3.25
2017-12-27T13:45:42.648Z,3.95
2017-12-27T13:48:09.880Z,2.35
2017-12-27T13:50:37.104Z,1.80
2017-12-27T13:53:04.332Z,2.15
2017-12-27T13:55:31.558Z,4.40
2017-12-27T13:57:58.779Z,3.20
2017-12-27T14:00:26.001Z,2.85
2017-12-27T14:02:53.231Z,3.03
2017-12-27T14:05:20.469Z,3.65
2017-12-27T14:07:47.689Z,3.92
2017-12-27T14:10:14.916Z,3.10
2017-12-27T14:12:42.149Z,3.25
2017-12-27T14:15:09.372Z,5.00
2017-12-27T14:17:36.603Z,4.70
2017-12-27T14:20:03.822Z,5.95
2017-12-27T14:22:31.042Z,4.70
2017-12-27T14:24:58.263Z,4.35
2017-12-27T14:27:25.491Z,4.37
2017-12-27T14:29:52.719Z,7.00
2017-12-27T14:32:19.933Z,8.52
2017-12-27T14:34:47.157Z,6.37
2017-12-27T14:37:14.376Z,4.65
2017-12-27T14:39:41.612Z,4.28
2017-12-27T14:42:08.812Z,5.00
2017-12-27T14:44:36.052Z,4.90
2017-12-27T14:47:03.276Z,4.35
2017-12-27T14:49:30.502Z,3.60
2017-12-27T14:51:57.729Z,3.28
2017-12-27T14:54:24.949Z,3.20
2017-12-27T14:56:52.173Z,3.80
2017-12-27T14:59:19.397Z,5.20
2017-12-27T15:01:46.616Z,6.28
2017-12-27T15:04:13.855Z,5.87
2017-12-27T15:06:41.064Z,4.70
2017-12-27T15:09:08.326Z,5.78
2017-12-27T15:11:35.533Z,4.72
2017-12-27T15:14:02.768Z,4.80
2017-12-27T15:16:29.977Z,4.68
2017-12-27T15:18:57.196Z,5.82
2017-12-27T15:21:24.462Z,6.95
2017-12-27T15:23:51.680Z,4.93
2017-12-27T15:26:18.905Z,4.90
2017-12-27T15:28:46.120Z,6.32
2017-12-27T15:31:13.386Z,5.32
2017-12-27T15:33:40.641Z,5.03
2017-12-27T15:36:07.865Z,6.40
2017-12-27T15:38:35.079Z,4.82
2017-12-27T15:41:02.346Z,6.03
2017-12-27T15:43:29.561Z,3.53
2017-12-27T15:45:56.828Z,6.72
2017-12-27T15:48:24.036Z,5.90
2017-12-27T15:50:51.261Z,13.48
2017-12-27T15:53:18.477Z,14.32
2017-12-27T15:55:45.707Z,10.20
2017-12-27T15:58:12.935Z,7.75
2017-12-27T16:00:40.148Z,5.18
2017-12-27T16:03:07.368Z,5.45
2017-12-27T16:05:34.589Z,6.95
2017-12-27T16:08:01.818Z,7.32
2017-12-27T16:10:29.054Z,5.78
2017-12-27T16:12:56.670Z,6.10
2017-12-27T16:15:23.893Z,5.25
2017-12-27T16:17:51.104Z,5.90
2017-12-27T16:20:18.324Z,6.32
2017-12-27T16:22:45.548Z,5.05
2017-12-27T16:25:12.811Z,5.53
2017-12-27T16:27:40.014Z,7.85
2017-12-27T16:30:07.252Z,6.43
2017-12-27T16:32:34.506Z,7.03
2017-12-27T16:35:01.715Z,7.18
2017-12-27T16:37:28.995Z,7.35
2017-12-27T16:39:56.201Z,5.93
2017-12-27T16:42:23.435Z,5.65
2017-12-27T16:44:50.661Z,10.98
2017-12-27T16:47:17.884Z,7.20
2017-12-27T16:49:45.116Z,6.55
2017-12-27T16:52:12.341Z,6.32
2017-12-27T16:54:39.551Z,4.85
2017-12-27T16:57:06.781Z,3.67
2017-12-27T16:59:33.992Z,5.00
2017-12-27T17:02:01.229Z,4.90
2017-12-27T17:04:28.452Z,4.80
2017-12-27T17:06:55.679Z,6.25
2017-12-27T17:09:22.935Z,7.60
2017-12-27T17:11:50.142Z,3.72
2017-12-27T17:14:17.360Z,4.47
2017-12-27T17:16:44.626Z,4.90
2017-12-27T17:19:11.830Z,7.40
2017-12-27T17:21:39.097Z,5.80
2017-12-27T17:24:06.317Z,4.50
2017-12-27T17:26:33.544Z,7.03
2017-12-27T17:29:00.799Z,4.85
2017-12-27T17:31:28.017Z,6.87
2017-12-27T17:33:55.227Z,5.50
2017-12-27T17:36:22.457Z,5.97
2017-12-27T17:38:49.714Z,8.70
2017-12-27T17:41:17.914Z,12.68
2017-12-27T17:43:45.211Z,20.95
2017-12-27T17:46:12.474Z,13.95
2017-12-27T17:48:39.738Z,21.62
2017-12-27T17:51:06.969Z,22.40
2017-12-27T17:53:34.246Z,27.65
2017-12-27T17:56:01.462Z,21.75
2017-12-27T17:58:28.743Z,14.68
2017-12-27T18:00:55.955Z,12.50
2017-12-27T18:03:23.235Z,15.25
2017-12-27T18:05:50.490Z,20.65
2017-12-27T18:08:17.756Z,15.10
2017-12-27T18:10:45.012Z,14.82
2017-12-27T18:13:12.232Z,10.18
2017-12-27T18:15:39.447Z,6.95
2017-12-27T18:18:06.733Z,9.75
2017-12-27T18:20:33.992Z,7.97
2017-12-27T18:23:01.276Z,18.62
2017-12-27T18:25:28.535Z,24.90
2017-12-27T18:27:55.814Z,12.13
2017-12-27T18:30:23.080Z,11.60
2017-12-27T18:32:50.361Z,13.32
2017-12-27T18:35:17.568Z,13.18
2017-12-27T18:37:44.856Z,15.35
2017-12-27T18:40:12.123Z,13.23
2017-12-27T18:42:39.402Z,8.02
2017-12-27T18:45:06.656Z,18.17
2017-12-27T18:47:33.912Z,8.93
2017-12-27T18:50:01.277Z,11.77
2017-12-27T18:52:28.545Z,17.17
2017-12-27T18:54:55.849Z,11.93
2017-12-27T18:57:23.103Z,11.38
2017-12-27T18:59:50.354Z,11.52
2017-12-27T19:02:17.620Z,8.43
2017-12-27T19:04:44.894Z,11.00
2017-12-27T19:07:12.139Z,9.43
2017-12-27T19:09:39.421Z,15.13
2017-12-27T19:12:06.669Z,9.60
2017-12-27T19:14:33.942Z,13.38
2017-12-27T19:17:01.199Z,10.23
2017-12-27T19:19:28.484Z,19.05
2017-12-27T19:21:55.763Z,10.23
2017-12-27T19:24:23.045Z,11.27
2017-12-27T19:26:50.326Z,13.82
2017-12-27T19:29:17.667Z,14.75
2017-12-27T19:31:44.974Z,17.05
2017-12-27T19:34:14.013Z,14.85
2017-12-27T19:36:41.327Z,11.65
2017-12-27T19:39:08.595Z,7.47
2017-12-27T19:41:35.858Z,7.50
2017-12-27T19:44:03.115Z,7.47
2017-12-27T19:46:30.366Z,10.27
2017-12-27T19:48:57.619Z,6.45
2017-12-27T19:51:24.874Z,2.62
2017-12-27T19:53:52.127Z,3.25
2017-12-27T19:56:19.393Z,6.22
2017-12-27T19:58:46.635Z,2.42
2017-12-27T20:01:13.904Z,3.08
2017-12-27T20:03:41.155Z,2.67
2017-12-27T20:06:08.418Z,4.10
2017-12-27T20:08:35.662Z,3.37
2017-12-27T20:11:02.945Z,1.75
2017-12-27T20:13:30.222Z,2.00
2017-12-27T20:15:57.470Z,3.15
2017-12-27T20:18:24.918Z,2.97
2017-12-27T20:20:52.345Z,2.00
2017-12-27T20:23:19.606Z,1.87
2017-12-27T20:25:46.867Z,4.82
2017-12-27T20:28:14.115Z,2.00
2017-12-27T20:30:41.712Z,6.82
2017-12-27T20:33:09.057Z,2.60
2017-12-27T20:35:36.441Z,2.75
2017-12-27T20:38:03.687Z,9.98
2017-12-27T20:40:31.735Z,3.75
2017-12-27T20:42:59.006Z,2.20
2017-12-27T20:45:26.271Z,3.08
2017-12-27T20:47:53.525Z,5.07
2017-12-27T20:50:20.797Z,4.22
2017-12-27T20:52:48.469Z,1.98
2017-12-27T20:55:15.764Z,5.28
2017-12-27T20:57:43.025Z,2.00
2017-12-27T21:00:10.280Z,4.18
2017-12-27T21:02:37.538Z,3.37
2017-12-27T21:05:04.787Z,2.78
2017-12-27T21:07:32.068Z,1.75
2017-12-27T21:09:59.325Z,2.10
2017-12-27T21:12:26.592Z,2.47
2017-12-27T21:14:53.830Z,3.30
2017-12-27T21:17:21.096Z,2.55
2017-12-27T21:19:48.337Z,2.92
2017-12-27T21:22:15.601Z,1.90
2017-12-27T21:24:42.843Z,2.40
2017-12-27T21:27:10.125Z,3.05
2017-12-27T21:29:37.483Z,3.12
2017-12-27T21:32:04.750Z,3.80
2017-12-27T21:34:32.003Z,3.10
2017-12-27T21:36:59.267Z,2.70
2017-12-27T21:39:26.520Z,2.58
2017-12-27T21:41:53.770Z,2.10
2017-12-27T21:44:21.031Z,2.40
2017-12-27T21:46:48.291Z,5.12
2017-12-27T21:49:35.396Z,2.72
2017-12-27T21:52:02.659Z,2.75
2017-12-27T21:54:29.922Z,2.40
2017-12-27T21:56:57.200Z,5.50
2017-12-27T22:02:44.915Z,2.78
2017-12-27T22:05:12.220Z,4.12
2017-12-27T22:07:39.568Z,5.35
2017-12-27T22:10:06.826Z,1.98
2017-12-27T22:12:34.097Z,2.75
2017-12-27T22:15:01.431Z,3.55
2017-12-27T22:17:28.717Z,2.42
2017-12-27T22:19:56.021Z,3.12
2017-12-27T22:22:23.272Z,5.05
2017-12-27T22:24:50.527Z,2.80
2017-12-27T22:27:17.779Z,2.67
2017-12-27T22:29:45.046Z,7.12
2017-12-27T22:32:12.300Z,4.72
2017-12-27T22:34:39.557Z,5.22
2017-12-27T22:37:06.801Z,4.37
2017-12-27T22:39:34.057Z,4.07
2017-12-27T22:42:01.311Z,2.85
2017-12-27T22:44:28.580Z,3.20
2017-12-27T22:46:55.832Z,2.85
2017-12-27T22:49:23.077Z,2.62
2017-12-27T22:51:50.323Z,2.28
2017-12-27T22:54:17.584Z,2.20
2017-12-27T22:56:44.834Z,3.35
2017-12-27T22:59:12.088Z,3.95
2017-12-27T23:01:39.332Z,2.65
2017-12-27T23:04:06.588Z,3.20
2017-12-27T23:06:33.844Z,4.55
2017-12-27T23:09:01.099Z,4.87
2017-12-27T23:11:28.354Z,4.62
2017-12-27T23:13:55.597Z,2.45
2017-12-27T23:16:22.842Z,4.80
2017-12-27T23:18:50.099Z,3.33
2017-12-27T23:21:17.359Z,2.97
2017-12-27T23:23:44.610Z,14.73
2017-12-27T23:26:11.859Z,2.55
2017-12-27T23:28:39.131Z,2.65
2017-12-27T23:31:06.380Z,2.75
2017-12-27T23:33:33.614Z,1.73
2017-12-27T23:36:00.867Z,1.60
2017-12-27T23:38:28.118Z,1.90
2017-12-27T23:40:55.386Z,2.17
2017-12-27T23:43:22.621Z,5.10
2017-12-27T23:45:49.878Z,1.92
2017-12-27T23:48:17.121Z,2.53
2017-12-27T23:50:44.373Z,2.15
2017-12-27T23:53:11.613Z,4.75
2017-12-27T23:55:38.861Z,2.10
2017-12-27T23:58:06.112Z,3.47
